Time;durP1;ratioP1;P1;durP2;ratioP2;P2;SDS_P1;SDS_P2;PMS_P1;PMS_P2;Temp;Humidity;BMP_temperature;BMP_pressure;BME280_temperature;BME280_humidity;BME280_pressure;Samples;Min_cycle;Max_cycle;Signal;HPM_P1;HPM_P2
2022/03/17 00:00:14;;;;;;;24.35;13.25;;;;;;;5.87;55.95;100867.28;4473475;31;32468;-76
2022/03/17 00:02:42;;;;;;;23.48;13.25;;;;;;;5.88;56.00;100864.41;4486590;31;33578;-76
2022/03/17 00:05:11;;;;;;;22.33;13.70;;;;;;;5.88;55.95;100863.53;4460122;31;32439;-76
2022/03/17 00:07:43;;;;;;;22.00;12.57;;;;;;;5.99;55.57;100865.25;4486824;31;34292;-76
2022/03/17 00:10:15;;;;;;;21.77;13.27;;;;;;;5.83;55.87;100877.66;4473612;31;33819;-76
2022/03/17 00:12:44;;;;;;;21.25;11.60;;;;;;;5.76;55.86;100881.97;4466681;32;31956;-76
2022/03/17 00:15:12;;;;;;;18.92;10.77;;;;;;;5.80;55.67;100887.97;4470507;32;33627;-76
2022/03/17 00:17:43;;;;;;;18.65;11.07;;;;;;;5.63;56.28;100886.88;4470420;32;34381;-76
2022/03/17 00:20:14;;;;;;;20.35;13.57;;;;;;;5.71;56.25;100889.72;4457949;32;32266;-76
2022/03/17 00:22:44;;;;;;;19.65;12.02;;;;;;;5.72;56.11;100888.72;4483375;32;33486;-76
2022/03/17 00:25:12;;;;;;;25.58;18.58;;;;;;;5.75;55.91;100888.44;4470554;32;33708;-76
2022/03/17 00:27:39;;;;;;;22.87;15.10;;;;;;;5.73;55.79;100892.31;4484363;32;34316;-76
2022/03/17 00:30:08;;;;;;;20.15;13.30;;;;;;;5.65;55.94;100890.31;4469992;32;34606;-76
2022/03/17 00:32:37;;;;;;;22.00;14.00;;;;;;;5.73;55.93;100903.19;4468587;32;31832;-76
2022/03/17 00:37:54;;;;;;;17.52;11.10;;;;;;;5.70;56.17;100892.59;4486042;32;34276;-76
2022/03/17 00:40:22;;;;;;;16.33;10.55;;;;;;;5.59;56.29;100893.63;4472799;32;33389;-76
2022/03/17 00:42:51;;;;;;;16.08;9.80;;;;;;;5.41;56.51;100890.81;4485854;32;33351;-77
2022/03/17 00:45:19;;;;;;;16.80;10.88;;;;;;;5.45;56.37;100894.94;4472896;32;33835;-77
2022/03/17 00:47:47;;;;;;;19.77;10.82;;;;;;;5.47;56.30;100884.78;4472716;32;34917;-77
2022/03/17 00:50:14;;;;;;;17.58;10.93;;;;;;;5.54;56.00;100880.47;4472668;32;33199;-74
2022/03/17 00:52:42;;;;;;;17.25;10.65;;;;;;;5.48;56.44;100893.81;4472620;32;34209;-74
2022/03/17 00:55:10;;;;;;;18.30;11.80;;;;;;;5.47;56.64;100890.22;4472580;32;34700;-75
2022/03/17 00:57:39;;;;;;;17.50;10.88;;;;;;;5.49;56.49;100890.06;4472303;32;34339;-74
2022/03/17 01:00:14;;;;;;;18.33;10.90;;;;;;;5.46;56.59;100890.38;4469244;32;32512;-74
2022/03/17 01:02:50;;;;;;;18.48;10.60;;;;;;;5.51;56.51;100899.81;4470084;32;33429;-74
2022/03/17 01:05:20;;;;;;;17.75;11.00;;;;;;;5.50;56.59;100905.41;4456113;32;33861;-82
2022/03/17 01:07:50;;;;;;;18.52;10.63;;;;;;;5.42;56.53;100905.28;4456681;32;34111;-76
2022/03/17 01:10:17;;;;;;;17.75;10.43;;;;;;;5.52;56.33;100908.84;4469513;32;33613;-76
2022/03/17 01:12:46;;;;;;;16.83;10.65;;;;;;;5.45;56.32;100908.56;4469661;32;33248;-76
2022/03/17 01:15:16;;;;;;;39.92;21.33;;;;;;;5.46;55.82;100901.25;4456481;32;34503;-76
2022/03/17 01:17:43;;;;;;;25.85;15.43;;;;;;;5.51;55.51;100905.25;4469476;32;32764;-77
2022/03/17 01:20:12;;;;;;;20.20;12.85;;;;;;;5.21;56.38;100900.84;4469572;32;33847;-76
2022/03/17 01:22:41;;;;;;;20.20;13.27;;;;;;;5.31;56.16;100911.72;4468069;31;33415;-76
2022/03/17 01:25:10;;;;;;;20.40;13.07;;;;;;;5.25;56.09;100901.44;4487955;31;33501;-76
2022/03/17 01:27:37;;;;;;;19.83;13.10;;;;;;;5.43;55.75;100907.84;4474873;31;32835;-76
2022/03/17 01:30:09;;;;;;;19.08;13.30;;;;;;;5.15;56.23;100901.47;4488120;31;33984;-76
2022/03/17 01:32:38;;;;;;;22.20;14.25;;;;;;;5.22;56.27;100901.72;4475319;31;34143;-76
2022/03/17 01:35:09;;;;;;;24.52;14.10;;;;;;;5.16;56.40;100902.31;4475169;31;33802;-76
2022/03/17 01:37:37;;;;;;;23.02;13.30;;;;;;;5.29;55.99;100901.00;4474750;31;33006;-77
2022/03/17 01:40:09;;;;;;;20.50;12.68;;;;;;;5.39;55.56;100906.44;4475076;31;33833;-76
2022/03/17 01:42:37;;;;;;;20.70;12.77;;;;;;;5.20;56.02;100901.03;4474857;31;32122;-76
2022/03/17 01:45:05;;;;;;;18.85;12.10;;;;;;;5.25;55.57;100902.28;4487972;31;33835;-76
2022/03/17 01:47:33;;;;;;;21.05;12.55;;;;;;;5.22;55.61;100899.84;4487791;31;34465;-76
2022/03/17 01:50:03;;;;;;;21.92;12.57;;;;;;;5.16;55.95;100900.47;4475102;31;33817;-76
2022/03/17 01:52:31;;;;;;;19.20;11.93;;;;;;;5.20;55.98;100901.03;4487179;31;34025;-76
2022/03/17 01:54:59;;;;;;;19.30;11.50;;;;;;;5.21;55.96;100903.59;4474162;31;32394;-76
2022/03/17 01:57:27;;;;;;;18.62;11.88;;;;;;;5.18;55.87;100903.03;4474702;31;32881;-77
2022/03/17 01:59:56;;;;;;;21.25;12.45;;;;;;;5.29;55.46;100905.56;4475040;31;34495;-77
2022/03/17 02:02:24;;;;;;;20.85;11.63;;;;;;;5.14;55.93;100902.47;4474691;31;33411;-77
2022/03/17 02:04:53;;;;;;;19.70;11.43;;;;;;;5.10;55.84;100906.47;4501732;31;33937;-77
2022/03/17 02:07:21;;;;;;;22.13;12.43;;;;;;;4.87;56.61;100911.34;4474661;31;33884;-77
2022/03/17 02:09:49;;;;;;;21.33;11.35;;;;;;;4.91;56.34;100909.19;4474931;31;34051;-76
2022/03/17 02:15:06;;;;;;;23.17;13.88;;;;;;;5.02;56.55;100921.81;4475816;31;32257;-76
2022/03/17 02:17:39;;;;;;;19.52;12.02;;;;;;;4.77;57.14;100909.62;4500820;31;34338;-77
2022/03/17 02:20:13;;;;;;;32.88;25.33;;;;;;;4.95;57.32;100926.94;4475101;31;34789;-76
2022/03/17 02:22:44;;;;;;;23.80;15.18;;;;;;;5.04;57.16;100933.41;4487799;31;33382;-77
2022/03/17 02:28:02;;;;;;;22.58;14.43;;;;;;;4.71;57.58;100926.50;4476399;31;33898;-77
2022/03/17 02:30:31;;;;;;;21.77;12.70;;;;;;;4.80;57.34;100926.50;4474543;31;32346;-77
2022/03/17 02:33:11;;;;;;;20.92;13.02;;;;;;;4.76;57.31;100922.34;4474555;31;32031;-76
2022/03/17 02:35:39;;;;;;;21.67;13.50;;;;;;;4.87;57.50;100935.81;4474585;31;33678;-76
2022/03/17 02:38:09;;;;;;;22.50;14.85;;;;;;;4.84;57.96;100933.38;4487573;31;34206;-77
2022/03/17 02:40:39;;;;;;;25.30;15.25;;;;;;;4.93;57.33;100935.25;4487750;31;33887;-77
2022/03/17 02:43:07;;;;;;;22.52;13.40;;;;;;;4.81;57.75;100935.53;4474722;31;33372;-76
2022/03/17 02:45:36;;;;;;;28.08;14.90;;;;;;;4.92;57.37;100935.41;4474650;31;34791;-76
2022/03/17 02:48:04;;;;;;;35.70;18.52;;;;;;;4.87;57.29;100949.41;4474204;31;32987;-76
2022/03/17 02:50:32;;;;;;;36.65;19.12;;;;;;;4.96;57.03;100945.84;4474336;31;33753;-76
2022/03/17 02:53:05;;;;;;;35.08;19.20;;;;;;;5.14;56.47;100956.03;4487440;31;33859;-76
2022/03/17 02:55:40;;;;;;;32.20;16.17;;;;;;;5.07;56.36;100954.88;4474356;31;34659;-77
2022/03/17 02:58:09;;;;;;;29.52;16.25;;;;;;;5.17;55.93;100959.31;4474175;31;33030;-76
2022/03/17 03:00:39;;;;;;;27.83;15.60;;;;;;;4.94;56.25;100957.88;4486783;31;33918;-76
2022/03/17 03:03:09;;;;;;;24.60;15.73;;;;;;;4.82;56.52;100962.59;4475130;31;33298;-76
2022/03/17 03:05:38;;;;;;;29.73;16.25;;;;;;;4.94;56.10;100964.19;4474647;31;33917;-76
2022/03/17 03:08:05;;;;;;;29.35;16.37;;;;;;;4.88;56.19;100970.19;4474260;31;32998;-76
2022/03/17 03:10:36;;;;;;;28.40;17.02;;;;;;;4.82;56.33;100976.19;4474010;31;33417;-76
2022/03/17 03:13:06;;;;;;;29.87;16.33;;;;;;;4.67;56.66;100979.44;4487361;31;33433;-76
2022/03/17 03:15:34;;;;;;;24.48;15.60;;;;;;;4.82;56.23;100984.34;4487383;31;33752;-76
2022/03/17 03:18:02;;;;;;;27.80;14.77;;;;;;;4.86;55.90;100971.31;4487227;31;34382;-76
2022/03/17 03:20:30;;;;;;;23.67;13.80;;;;;;;4.90;55.57;100973.63;4473864;31;32417;-76
2022/03/17 03:22:57;;;;;;;25.40;14.60;;;;;;;4.83;55.83;100966.16;4487442;31;33297;-77
2022/03/17 03:25:25;;;;;;;22.20;13.55;;;;;;;4.81;55.94;100977.19;4461173;31;33305;-76
2022/03/17 03:27:55;;;;;;;25.70;13.48;;;;;;;4.75;56.02;100975.03;4480840;32;34342;-76
2022/03/17 03:30:23;;;;;;;22.17;13.00;;;;;;;4.77;55.91;100972.16;4455272;32;33770;-76
2022/03/17 03:32:55;;;;;;;22.65;14.38;;;;;;;4.70;55.73;100971.88;4454802;32;33268;-76
2022/03/17 03:38:09;;;;;;;26.02;15.43;;;;;;;4.67;55.93;100974.00;4468744;32;35239;-76
2022/03/17 03:40:37;;;;;;;24.10;14.77;;;;;;;4.57;56.44;100976.69;4468634;32;34026;-76
2022/03/17 03:43:04;;;;;;;24.33;15.02;;;;;;;4.59;56.63;100971.97;4468559;32;33323;-76
2022/03/17 03:45:32;;;;;;;28.90;15.65;;;;;;;4.36;57.79;100979.50;4469739;32;34721;-76
2022/03/17 03:48:00;;;;;;;24.92;14.90;;;;;;;4.51;57.69;100980.00;4455797;32;35438;-76
2022/03/17 03:50:30;;;;;;;24.77;15.20;;;;;;;4.48;57.67;100977.56;4469754;32;34587;-75
2022/03/17 03:52:58;;;;;;;22.15;13.65;;;;;;;4.51;57.44;100980.84;4468225;32;33166;-76
2022/03/17 03:55:25;;;;;;;25.62;14.82;;;;;;;4.54;57.07;100980.56;4455337;32;33132;-75
2022/03/17 03:57:54;;;;;;;24.80;13.82;;;;;;;4.50;56.94;100981.84;4469661;32;34564;-76
2022/03/17 04:02:51;;;;;;;24.52;13.95;;;;;;;4.45;56.87;100989.56;4455759;32;32960;-76
2022/03/17 04:05:25;;;;;;;22.70;14.10;;;;;;;4.43;56.79;100979.81;4455410;32;33900;-76
2022/03/17 04:07:56;;;;;;;24.77;14.48;;;;;;;4.51;56.50;100969.97;4456127;32;32908;-76
2022/03/17 04:10:25;;;;;;;24.25;14.10;;;;;;;4.36;56.65;100981.38;4468187;32;33876;-76
2022/03/17 04:12:52;;;;;;;22.30;13.40;;;;;;;4.26;56.93;100965.03;4456978;32;33551;-76
2022/03/17 04:15:20;;;;;;;22.13;14.15;;;;;;;4.29;56.67;100976.47;4470238;32;33883;-75
2022/03/17 04:17:50;;;;;;;23.35;13.68;;;;;;;4.45;56.32;100962.37;4457184;32;34325;-76
2022/03/17 04:20:20;;;;;;;24.27;13.68;;;;;;;4.22;56.71;100967.16;4470014;32;34646;-76
2022/03/17 04:22:47;;;;;;;22.67;14.00;;;;;;;4.23;56.81;100955.28;4470175;32;34050;-75
2022/03/17 04:25:15;;;;;;;24.25;15.32;;;;;;;4.31;56.50;100954.59;4457188;32;34209;-76
2022/03/17 04:27:43;;;;;;;26.60;16.05;;;;;;;4.19;56.92;100963.84;4457141;32;33070;-76
2022/03/17 04:30:11;;;;;;;26.35;14.98;;;;;;;4.11;57.49;100963.66;4457202;32;33380;-76
2022/03/17 04:32:38;;;;;;;26.80;15.38;;;;;;;4.28;57.40;100972.03;4471130;32;34273;-75
2022/03/17 04:35:07;;;;;;;25.55;15.77;;;;;;;4.28;57.99;100990.22;4457194;32;34513;-75
2022/03/17 04:37:37;;;;;;;27.83;15.85;;;;;;;4.47;57.71;100995.72;4470212;32;34139;-75
2022/03/17 04:40:08;;;;;;;27.80;15.82;;;;;;;4.53;57.71;101005.19;4470163;32;33948;-75
2022/03/17 04:42:36;;;;;;;30.17;15.38;;;;;;;4.43;58.09;101010.59;4457469;32;32578;-76
2022/03/17 04:45:04;;;;;;;27.73;15.68;;;;;;;4.49;57.71;101004.59;4457254;32;33766;-76
2022/03/17 04:47:31;;;;;;;26.73;15.10;;;;;;;4.37;57.72;101007.56;4469897;32;34263;-75
2022/03/17 04:49:59;;;;;;;24.55;15.57;;;;;;;4.32;57.32;101015.25;4469920;32;33966;-75
2022/03/17 04:55:15;;;;;;;28.87;17.17;;;;;;;4.49;56.23;101006.47;4458949;32;33093;-75
2022/03/17 04:57:43;;;;;;;28.15;16.23;;;;;;;4.43;56.24;101004.28;4469782;32;34296;-75
2022/03/17 05:00:11;;;;;;;35.05;17.58;;;;;;;4.34;56.63;101013.25;4456813;32;33881;-76
2022/03/17 05:02:41;;;;;;;26.80;17.27;;;;;;;4.16;56.96;101010.31;4456955;32;33120;-75
2022/03/17 05:05:09;;;;;;;26.27;16.50;;;;;;;4.12;57.36;101023.31;4456781;32;34565;-75
2022/03/17 05:07:36;;;;;;;27.13;16.60;;;;;;;4.37;56.88;101032.88;4456845;32;34245;-76
2022/03/17 05:10:04;;;;;;;29.98;17.90;;;;;;;4.32;56.85;101020.69;4455912;32;34171;-75
2022/03/17 05:12:32;;;;;;;28.48;17.37;;;;;;;4.29;56.81;101025.41;4456842;32;32904;-75
2022/03/17 05:15:00;;;;;;;29.60;18.10;;;;;;;4.24;56.89;101030.37;4469754;32;34740;-75
2022/03/17 05:17:27;;;;;;;30.10;17.20;;;;;;;4.15;57.30;101041.19;4469600;32;34222;-76
2022/03/17 05:19:55;;;;;;;25.35;16.75;;;;;;;4.46;56.33;101053.78;4456434;32;32498;-75
2022/03/17 05:22:26;;;;;;;26.60;16.08;;;;;;;4.39;56.99;101065.34;4456697;32;31909;-75
2022/03/17 05:24:54;;;;;;;30.10;17.05;;;;;;;4.43;57.08;101070.38;4456857;32;32298;-75
2022/03/17 05:27:23;;;;;;;31.30;17.77;;;;;;;4.47;57.35;101071.84;4463230;32;33764;-75
2022/03/17 05:29:51;;;;;;;28.02;17.87;;;;;;;4.47;57.67;101081.84;4470162;32;33770;-75
2022/03/17 05:32:21;;;;;;;30.67;18.85;;;;;;;4.50;57.21;101074.28;4486125;32;34196;-75
2022/03/17 05:34:48;;;;;;;36.65;20.55;;;;;;;4.51;56.84;101072.41;4484664;32;33285;-75
2022/03/17 05:37:16;;;;;;;29.12;18.15;;;;;;;4.68;60.23;101077.19;4476310;31;34379;-75
2022/03/17 05:39:43;;;;;;;35.72;19.37;;;;;;;4.83;58.33;101074.97;4486484;31;34685;-76
2022/03/17 05:42:11;;;;;;;31.95;19.08;;;;;;;4.67;57.27;101086.34;4468890;32;32145;-76
2022/03/17 05:44:39;;;;;;;32.67;18.60;;;;;;;4.59;57.37;101097.03;4469673;32;33794;-77
2022/03/17 05:47:07;;;;;;;28.95;18.45;;;;;;;4.73;56.85;101102.13;4469663;32;35244;-76
2022/03/17 05:49:34;;;;;;;29.98;18.10;;;;;;;4.80;56.96;101111.44;4469289;32;33674;-76
2022/03/17 05:52:02;;;;;;;30.15;18.77;;;;;;;4.80;56.99;101116.88;4469526;32;33458;-75
2022/03/17 05:54:30;;;;;;;29.77;18.23;;;;;;;4.83;56.76;101116.62;4443879;32;33945;-76
2022/03/17 05:56:57;;;;;;;30.50;17.92;;;;;;;5.13;55.98;101114.84;4456525;32;33653;-76
2022/03/17 05:59:25;;;;;;;31.87;17.02;;;;;;;5.00;56.50;101116.97;4456281;32;34677;-75
2022/03/17 06:01:55;;;;;;;28.95;17.77;;;;;;;5.26;57.00;101120.88;4456667;32;34073;-76
2022/03/17 06:04:43;;;;;;;31.50;18.65;;;;;;;5.08;57.84;101115.28;4469723;32;33778;-76
2022/03/17 06:07:10;;;;;;;33.78;20.30;;;;;;;5.10;57.46;101118.72;4456186;32;33768;-76
2022/03/17 06:09:41;;;;;;;35.58;19.35;;;;;;;5.09;57.78;101129.75;4468290;32;34585;-76
2022/03/17 06:12:11;;;;;;;31.87;17.55;;;;;;;5.50;56.70;101129.53;4470529;32;33525;-76
2022/03/17 06:14:42;;;;;;;27.80;17.15;;;;;;;5.39;57.14;101128.78;4458614;32;33162;-77
2022/03/17 06:17:12;;;;;;;29.67;17.40;;;;;;;5.50;56.68;101134.97;4469812;32;35499;-76
2022/03/17 06:19:40;;;;;;;30.88;17.98;;;;;;;5.72;56.16;101133.00;4485522;32;33915;-75
2022/03/17 06:22:08;;;;;;;32.47;17.05;;;;;;;6.11;55.46;101137.44;4471909;32;32835;-76
2022/03/17 06:24:35;;;;;;;28.27;16.80;;;;;;;6.41;55.14;101141.87;4460777;31;32190;-76
2022/03/17 06:27:03;;;;;;;29.45;17.67;;;;;;;6.46;55.20;101136.84;4463423;32;35372;-77
2022/03/17 06:29:30;;;;;;;31.52;18.25;;;;;;;6.87;54.33;101151.06;4453751;32;32551;-76
2022/03/17 06:31:58;;;;;;;30.15;18.45;;;;;;;7.10;53.61;101159.72;4462839;32;31791;-77
2022/03/17 06:34:28;;;;;;;28.95;17.58;;;;;;;7.49;53.00;101157.62;4465290;31;33968;-76
2022/03/17 06:36:55;;;;;;;33.33;19.37;;;;;;;7.63;53.04;101156.25;4483726;32;34236;-77
2022/03/17 06:39:28;;;;;;;30.42;18.65;;;;;;;7.84;53.13;101152.19;4459366;32;32374;-78
2022/03/17 06:42:00;;;;;;;32.75;18.87;;;;;;;8.20;52.64;101150.31;4471895;32;34191;-77
2022/03/17 06:44:28;;;;;;;32.55;21.37;;;;;;;8.56;52.30;101142.03;4472013;32;32473;-78
2022/03/17 06:46:56;;;;;;;33.85;19.77;;;;;;;8.38;51.88;101149.47;4458974;32;33777;-78
2022/03/17 06:49:26;;;;;;;31.62;18.95;;;;;;;8.73;49.97;101141.13;4471780;32;34573;-76
2022/03/17 06:51:56;;;;;;;30.67;18.15;;;;;;;8.81;46.68;101141.19;4472009;32;33343;-76
2022/03/17 06:54:24;;;;;;;32.72;18.45;;;;;;;8.44;46.34;101149.69;4484655;32;33502;-76
2022/03/17 06:56:52;;;;;;;36.97;19.10;;;;;;;8.62;46.21;101152.34;4471469;32;33077;-76
2022/03/17 06:59:21;;;;;;;31.70;18.17;;;;;;;9.14;45.18;101158.63;4471541;32;32513;-76
2022/03/17 07:01:48;;;;;;;31.87;18.30;;;;;;;9.31;44.07;101154.09;4467331;31;31659;-76
2022/03/17 07:04:16;;;;;;;30.10;18.30;;;;;;;9.98;42.86;101165.06;4484111;32;34697;-76
2022/03/17 07:06:44;;;;;;;34.65;19.20;;;;;;;9.51;42.24;101154.69;4485617;32;34605;-76
2022/03/17 07:09:17;;;;;;;36.42;20.17;;;;;;;9.57;42.23;101154.88;4471234;32;32391;-77
2022/03/17 07:11:47;;;;;;;30.62;17.92;;;;;;;9.84;41.91;101159.19;4458923;32;32895;-76
2022/03/17 07:14:14;;;;;;;31.60;18.25;;;;;;;9.93;41.75;101161.97;4484532;32;34398;-77
2022/03/17 07:16:42;;;;;;;36.47;19.60;;;;;;;9.98;40.90;101154.94;4484369;32;35293;-77
2022/03/17 07:19:10;;;;;;;34.75;19.27;;;;;;;10.12;41.25;101154.28;4471562;32;33992;-76
2022/03/17 07:21:40;;;;;;;31.15;18.27;;;;;;;9.90;41.07;101153.03;4484059;32;33311;-76
2022/03/17 07:24:11;;;;;;;36.38;18.48;;;;;;;10.30;40.81;101150.53;4484130;32;34362;-76
2022/03/17 07:26:40;;;;;;;29.00;17.65;;;;;;;10.45;40.71;101162.53;4471595;32;34125;-76
2022/03/17 07:29:08;;;;;;;32.90;18.65;;;;;;;10.54;40.66;101161.50;4471485;32;33980;-76
2022/03/17 07:31:39;;;;;;;39.35;19.67;;;;;;;10.09;41.29;101154.63;4471038;32;34284;-76
2022/03/17 07:34:07;;;;;;;30.65;18.10;;;;;;;9.64;41.75;101156.94;4484314;32;34548;-77
2022/03/17 07:36:34;;;;;;;30.73;18.77;;;;;;;10.12;41.52;101158.91;4471150;32;34272;-76
2022/03/17 07:39:03;;;;;;;31.62;19.00;;;;;;;10.18;41.07;101148.09;4483978;32;33958;-76
2022/03/17 07:41:31;;;;;;;30.62;18.92;;;;;;;10.25;40.69;101158.44;4471211;32;31976;-77
2022/03/17 07:44:00;;;;;;;30.02;18.37;;;;;;;10.19;41.02;101158.09;4471365;32;34681;-76
2022/03/17 07:46:31;;;;;;;35.03;18.17;;;;;;;10.48;40.88;101149.31;4471113;32;33004;-76
2022/03/17 07:49:03;;;;;;;31.05;18.65;;;;;;;10.37;40.72;101160.66;4471717;32;33955;-77
2022/03/17 07:51:31;;;;;;;31.45;19.27;;;;;;;10.63;40.34;101162.34;4486787;31;33200;-77
2022/03/17 07:53:58;;;;;;;34.85;18.17;;;;;;;11.00;40.01;101164.50;4473856;31;34453;-77
2022/03/17 07:56:26;;;;;;;27.37;18.30;;;;;;;10.89;40.23;101155.59;4486559;31;32930;-77
2022/03/17 07:58:54;;;;;;;30.92;18.37;;;;;;;11.23;39.56;101163.56;4460886;31;33411;-76
2022/03/17 08:01:24;;;;;;;35.38;19.67;;;;;;;10.54;40.27;101169.72;4473832;31;33643;-77
2022/03/17 08:03:54;;;;;;;31.52;19.77;;;;;;;10.59;40.50;101158.22;4473709;31;32382;-77
2022/03/17 08:06:22;;;;;;;41.17;22.35;;;;;;;11.07;39.84;101171.00;4486806;31;34272;-77
2022/03/17 08:08:50;;;;;;;42.83;24.20;;;;;;;11.33;39.43;101171.59;4473424;31;33766;-78
2022/03/17 08:11:22;;;;;;;30.75;19.23;;;;;;;11.23;39.87;101168.19;4468728;32;34116;-77
2022/03/17 08:13:50;;;;;;;32.65;19.65;;;;;;;11.53;39.59;101170.13;4470863;32;32189;-77
2022/03/17 08:16:18;;;;;;;32.75;18.75;;;;;;;11.32;39.34;101171.78;4483384;32;35068;-78
2022/03/17 08:18:46;;;;;;;34.40;20.25;;;;;;;11.59;39.18;101170.47;4483679;32;34543;-77
2022/03/17 08:21:17;;;;;;;33.38;19.80;;;;;;;11.85;38.31;101176.50;4470245;32;34339;-78
2022/03/17 08:23:46;;;;;;;30.27;19.55;;;;;;;12.25;38.30;101174.53;4483339;32;33782;-78
2022/03/17 08:26:16;;;;;;;31.58;19.60;;;;;;;12.39;37.56;101181.97;4484608;31;35223;-78
2022/03/17 08:28:46;;;;;;;30.92;19.65;;;;;;;12.43;37.88;101175.91;4473484;31;32549;-78
2022/03/17 08:31:14;;;;;;;37.75;21.50;;;;;;;12.38;37.87;101174.75;4473550;31;31851;-78
2022/03/17 08:33:45;;;;;;;46.28;25.55;;;;;;;12.22;38.11;101180.41;4473053;31;32573;-78
2022/03/17 08:36:13;;;;;;;30.37;19.50;;;;;;;12.74;37.54;101181.31;4486038;31;34348;-79
2022/03/17 08:38:44;;;;;;;28.73;18.87;;;;;;;12.56;37.59;101191.81;4486421;31;34233;-78
2022/03/17 08:41:12;;;;;;;31.45;20.00;;;;;;;12.64;37.10;101188.12;4473093;31;33283;-79
2022/03/17 08:43:47;;;;;;;37.10;20.23;;;;;;;12.82;37.28;101200.53;4485922;31;34397;-79
2022/03/17 08:49:24;;;;;;;31.75;20.08;;;;;;;13.07;36.19;101190.09;4488112;31;34017;-78
2022/03/17 08:51:56;;;;;;;31.95;19.70;;;;;;;13.17;36.43;101193.47;4486074;31;34051;-78
2022/03/17 08:54:28;;;;;;;36.42;22.13;;;;;;;13.06;36.59;101177.34;4485996;31;34667;-78
2022/03/17 08:57:01;;;;;;;30.27;18.45;;;;;;;13.21;36.50;101188.44;4473146;31;33977;-77
2022/03/17 08:59:41;;;;;;;36.75;19.23;;;;;;;13.60;35.63;101195.56;4475049;31;32413;-79
2022/03/17 09:02:15;;;;;;;35.15;20.08;;;;;;;13.37;35.80;101201.19;4488658;31;33438;-78
2022/03/17 09:04:46;;;;;;;29.55;19.70;;;;;;;13.06;36.12;101187.53;4502236;31;34319;-78
2022/03/17 09:07:19;;;;;;;31.27;19.05;;;;;;;13.24;36.40;101196.31;4475484;31;33041;-76
2022/03/17 09:09:52;;;;;;;31.62;19.92;;;;;;;13.20;36.12;101197.75;4462224;31;33401;-78
2022/03/17 09:12:20;;;;;;;29.60;19.35;;;;;;;13.90;35.50;101197.19;4475210;31;34230;-78
2022/03/17 09:14:51;;;;;;;29.02;18.02;;;;;;;13.86;34.64;101204.16;4488105;31;34602;-78
2022/03/17 09:17:20;;;;;;;31.77;21.40;;;;;;;13.95;34.50;101207.66;4474669;31;33381;-77
2022/03/17 09:19:48;;;;;;;44.25;25.05;;;;;;;12.83;36.63;101210.50;4488121;31;33708;-78
2022/03/17 09:22:16;;;;;;;32.90;21.27;;;;;;;13.37;35.91;101212.22;4502276;31;33179;-77
2022/03/17 09:24:48;;;;;;;32.58;20.98;;;;;;;13.40;35.84;101211.84;4475085;31;34475;-79
2022/03/17 09:27:22;;;;;;;31.33;20.10;;;;;;;13.10;36.02;101202.66;4488529;31;34270;-81
2022/03/17 09:29:52;;;;;;;34.92;20.45;;;;;;;13.08;35.71;101207.50;4488288;31;34616;-78
2022/03/17 09:32:24;;;;;;;31.70;20.05;;;;;;;12.96;37.21;101209.87;4475034;31;33320;-78
2022/03/17 09:34:59;;;;;;;34.78;20.85;;;;;;;12.78;36.61;101210.22;4475390;31;33897;-78
2022/03/17 09:37:31;;;;;;;33.17;20.45;;;;;;;12.72;36.37;101210.09;4501978;31;34393;-77
2022/03/17 09:39:58;;;;;;;31.02;20.30;;;;;;;12.71;37.14;101200.97;4474948;31;34331;-77
2022/03/17 09:42:29;;;;;;;32.47;19.92;;;;;;;12.59;37.65;101207.97;4487565;31;33101;-77
2022/03/17 09:45:02;;;;;;;34.03;21.62;;;;;;;12.83;37.59;101205.00;4475094;31;32460;-77
2022/03/17 09:47:36;;;;;;;47.60;30.00;;;;;;;12.93;37.19;101207.50;4474744;31;33067;-78
2022/03/17 09:50:05;;;;;;;33.25;21.52;;;;;;;13.18;37.16;101210.88;4487771;31;34695;-78
2022/03/17 09:52:41;;;;;;;32.90;21.20;;;;;;;13.47;35.78;101210.03;4475076;31;31816;-78
2022/03/17 09:55:12;;;;;;;37.03;21.27;;;;;;;13.42;35.27;101209.75;4502344;31;33823;-78
2022/03/17 09:57:42;;;;;;;37.92;21.48;;;;;;;13.16;36.19;101210.19;4502264;31;34319;-78
2022/03/17 10:00:15;;;;;;;36.28;21.08;;;;;;;13.61;35.55;101214.69;4488025;31;34182;-78
2022/03/17 10:02:43;;;;;;;32.83;21.23;;;;;;;13.63;35.84;101206.22;4487642;31;31995;-78
2022/03/17 10:05:14;;;;;;;31.27;20.45;;;;;;;13.75;35.70;101201.88;4487870;31;33740;-78
2022/03/17 10:07:42;;;;;;;31.80;20.90;;;;;;;14.17;34.91;101204.75;4487870;31;35154;-78
2022/03/17 10:10:13;;;;;;;33.17;21.20;;;;;;;13.57;34.70;101212.50;4475189;31;34657;-78
2022/03/17 10:12:43;;;;;;;34.17;20.75;;;;;;;13.77;34.39;101197.03;4471998;32;33236;-77
2022/03/17 10:15:20;;;;;;;33.95;21.70;;;;;;;13.89;34.71;101206.53;4469499;32;33802;-78
2022/03/17 10:17:51;;;;;;;36.60;21.75;;;;;;;14.50;33.47;101201.47;4470344;32;34344;-79
2022/03/17 10:20:28;;;;;;;70.25;40.00;;;;;;;14.33;33.81;101194.47;4456367;32;32496;-78
2022/03/17 10:23:02;;;;;;;48.03;28.98;;;;;;;14.62;33.63;101190.75;4456665;32;31826;-79
2022/03/17 10:25:31;;;;;;;33.08;21.87;;;;;;;14.93;33.34;101195.91;4469172;32;34710;-78
2022/03/17 10:28:04;;;;;;;33.28;20.92;;;;;;;14.90;32.85;101194.41;4456654;32;34135;-78
2022/03/17 10:30:34;;;;;;;38.28;21.52;;;;;;;15.22;32.33;101198.44;4456316;32;33996;-78
2022/03/17 10:33:15;;;;;;;33.45;21.75;;;;;;;15.04;32.43;101196.19;4456365;32;31821;-78
2022/03/17 10:35:46;;;;;;;28.60;20.98;;;;;;;15.04;32.45;101196.19;4469075;32;33529;-78
2022/03/17 10:38:27;;;;;;;33.47;21.80;;;;;;;14.90;32.77;101193.56;4469194;32;35346;-78
2022/03/17 10:41:12;;;;;;;28.83;19.60;;;;;;;14.34;33.22;101196.19;4468960;32;33839;-80
2022/03/17 10:43:47;;;;;;;29.93;19.93;;;;;;;14.25;33.41;101197.38;4456331;32;34100;-78
2022/03/17 10:46:20;;;;;;;31.95;20.75;;;;;;;14.27;33.35;101198.91;4456676;32;33763;-78
2022/03/17 10:48:58;;;;;;;31.00;20.67;;;;;;;14.09;33.58;101202.09;4454676;32;34365;-76
2022/03/17 10:51:34;;;;;;;31.15;20.52;;;;;;;13.69;34.19;101205.41;4468965;32;32399;-76
2022/03/17 10:54:19;;;;;;;29.10;21.08;;;;;;;14.04;33.98;101203.72;4470319;32;34184;-78
2022/03/17 10:57:05;;;;;;;33.17;21.50;;;;;;;14.18;33.67;101200.94;4456826;32;34142;-77
2022/03/17 10:59:43;;;;;;;30.48;19.70;;;;;;;14.50;32.76;101207.00;4464570;32;141718;-77
2022/03/17 11:02:13;;;;;;;46.63;31.50;;;;;;;14.39;33.08;101213.03;4469136;32;34765;-77
2022/03/17 11:04:44;;;;;;;41.85;27.92;;;;;;;14.78;32.92;101216.22;4468990;32;33422;-76
2022/03/17 11:07:16;;;;;;;30.33;20.62;;;;;;;14.69;33.20;101203.59;4469014;32;33759;-77
2022/03/17 11:09:45;;;;;;;31.17;21.05;;;;;;;14.73;33.28;101202.13;4454171;32;34043;-76
2022/03/17 11:12:17;;;;;;;29.87;20.02;;;;;;;14.86;33.13;101208.81;4454080;32;34342;-76
2022/03/17 11:14:47;;;;;;;30.48;20.75;;;;;;;14.86;32.96;101214.34;4466737;32;33133;-76
2022/03/17 11:17:26;;;;;;;28.62;18.75;;;;;;;14.09;34.01;101226.09;4455844;32;32131;-76
2022/03/17 11:19:58;;;;;;;26.67;18.10;;;;;;;14.24;34.12;101229.66;4467672;32;35092;-77
2022/03/17 11:22:31;;;;;;;29.05;18.33;;;;;;;14.35;34.06;101223.59;4468667;32;33932;-76
2022/03/17 11:25:24;;;;;;;29.90;18.05;;;;;;;14.47;34.01;101223.97;4456625;32;32053;-77
2022/03/17 11:28:00;;;;;;;28.80;17.62;;;;;;;14.24;34.24;101226.91;4456320;32;32302;-76
2022/03/17 11:30:43;;;;;;;26.98;17.42;;;;;;;14.50;34.32;101226.34;4468563;32;34318;-77
2022/03/17 11:33:28;;;;;;;33.40;20.00;;;;;;;14.66;34.41;101217.78;4468743;32;33773;-77
2022/03/17 11:36:02;;;;;;;28.90;18.83;;;;;;;14.78;33.88;101232.78;4455964;32;31930;-77
2022/03/17 11:38:37;;;;;;;32.00;20.05;;;;;;;14.90;33.18;101213.75;4443266;32;32142;-76
2022/03/17 11:41:10;;;;;;;28.52;18.35;;;;;;;14.46;33.96;101222.25;4468619;32;34377;-77
2022/03/17 11:44:03;;;;;;;30.70;18.62;;;;;;;14.77;34.21;101217.25;4455846;32;33888;-77
2022/03/17 11:46:43;;;;;;;28.00;18.02;;;;;;;14.75;33.95;101226.81;4466259;32;33809;-77